sensor_id;sensor_type;location;lat;lon;timestamp;P1;durP1;ratioP1;P2;durP2;ratioP2
68097;SDS011;54886;47.036;15.466;2023-09-19T00:00:22;12.70;;;5.40;;
68097;SDS011;54886;47.036;15.466;2023-09-19T00:02:58;11.20;;;5.13;;
68097;SDS011;54886;47.036;15.466;2023-09-19T00:05:26;9.52;;;4.95;;
68097;SDS011;54886;47.036;15.466;2023-09-19T00:07:54;12.27;;;4.88;;
68097;SDS011;54886;47.036;15.466;2023-09-19T00:10:23;14.07;;;5.38;;
68097;SDS011;54886;47.036;15.466;2023-09-19T00:12:53;9.73;;;4.95;;
68097;SDS011;54886;47.036;15.466;2023-09-19T00:15:22;10.02;;;4.80;;
68097;SDS011;54886;47.036;15.466;2023-09-19T00:17:48;12.27;;;4.85;;
68097;SDS011;54886;47.036;15.466;2023-09-19T00:20:13;12.52;;;5.45;;
68097;SDS011;54886;47.036;15.466;2023-09-19T00:22:42;8.95;;;4.90;;
68097;SDS011;54886;47.036;15.466;2023-09-19T00:25:08;12.27;;;4.60;;
68097;SDS011;54886;47.036;15.466;2023-09-19T00:27:39;10.02;;;4.75;;
68097;SDS011;54886;47.036;15.466;2023-09-19T00:30:05;10.13;;;4.80;;
68097;SDS011;54886;47.036;15.466;2023-09-19T00:32:33;10.80;;;4.70;;
68097;SDS011;54886;47.036;15.466;2023-09-19T00:34:59;9.07;;;4.63;;
68097;SDS011;54886;47.036;15.466;2023-09-19T00:37:25;9.27;;;4.50;;
68097;SDS011;54886;47.036;15.466;2023-09-19T00:39:50;11.68;;;4.75;;
68097;SDS011;54886;47.036;15.466;2023-09-19T00:42:19;10.90;;;4.50;;
68097;SDS011;54886;47.036;15.466;2023-09-19T00:44:47;14.95;;;4.97;;
68097;SDS011;54886;47.036;15.466;2023-09-19T00:47:16;13.10;;;5.03;;
68097;SDS011;54886;47.036;15.466;2023-09-19T00:49:45;10.27;;;3.97;;
68097;SDS011;54886;47.036;15.466;2023-09-19T00:52:15;12.75;;;4.40;;
68097;SDS011;54886;47.036;15.466;2023-09-19T00:54:44;9.27;;;3.85;;
68097;SDS011;54886;47.036;15.466;2023-09-19T00:57:10;7.90;;;4.07;;
68097;SDS011;54886;47.036;15.466;2023-09-19T00:59:36;11.00;;;4.10;;
68097;SDS011;54886;47.036;15.466;2023-09-19T01:02:02;9.90;;;4.07;;
68097;SDS011;54886;47.036;15.466;2023-09-19T01:04:28;9.25;;;3.85;;
68097;SDS011;54886;47.036;15.466;2023-09-19T01:06:54;9.52;;;3.75;;
68097;SDS011;54886;47.036;15.466;2023-09-19T01:09:20;7.75;;;3.60;;
68097;SDS011;54886;47.036;15.466;2023-09-19T01:11:47;10.60;;;3.85;;
68097;SDS011;54886;47.036;15.466;2023-09-19T01:14:20;10.48;;;4.10;;
68097;SDS011;54886;47.036;15.466;2023-09-19T01:30:26;9.70;;;4.10;;
68097;SDS011;54886;47.036;15.466;2023-09-19T01:32:54;7.53;;;3.70;;
68097;SDS011;54886;47.036;15.466;2023-09-19T01:35:20;8.40;;;4.00;;
68097;SDS011;54886;47.036;15.466;2023-09-19T01:37:45;9.45;;;3.80;;
68097;SDS011;54886;47.036;15.466;2023-09-19T01:40:12;8.27;;;3.85;;
68097;SDS011;54886;47.036;15.466;2023-09-19T01:48:46;9.82;;;3.50;;
68097;SDS011;54886;47.036;15.466;2023-09-19T01:51:21;7.90;;;3.78;;
68097;SDS011;54886;47.036;15.466;2023-09-19T01:54:04;9.90;;;3.83;;
68097;SDS011;54886;47.036;15.466;2023-09-19T01:56:51;8.70;;;3.55;;
68097;SDS011;54886;47.036;15.466;2023-09-19T01:59:38;9.60;;;3.33;;
68097;SDS011;54886;47.036;15.466;2023-09-19T02:02:17;10.95;;;3.80;;
68097;SDS011;54886;47.036;15.466;2023-09-19T02:04:46;8.82;;;3.50;;
68097;SDS011;54886;47.036;15.466;2023-09-19T02:07:13;12.45;;;3.10;;
68097;SDS011;54886;47.036;15.466;2023-09-19T02:09:41;10.18;;;3.95;;
68097;SDS011;54886;47.036;15.466;2023-09-19T02:12:08;6.47;;;3.15;;
68097;SDS011;54886;47.036;15.466;2023-09-19T02:14:34;10.00;;;3.47;;
68097;SDS011;54886;47.036;15.466;2023-09-19T02:17:01;10.10;;;3.70;;
68097;SDS011;54886;47.036;15.466;2023-09-19T02:19:30;7.22;;;3.50;;
68097;SDS011;54886;47.036;15.466;2023-09-19T02:21:57;7.47;;;3.03;;
68097;SDS011;54886;47.036;15.466;2023-09-19T02:24:22;8.82;;;3.38;;
68097;SDS011;54886;47.036;15.466;2023-09-19T02:26:51;7.95;;;3.45;;
68097;SDS011;54886;47.036;15.466;2023-09-19T02:29:17;8.68;;;3.03;;
68097;SDS011;54886;47.036;15.466;2023-09-19T02:31:42;7.80;;;3.03;;
68097;SDS011;54886;47.036;15.466;2023-09-19T02:34:08;4.93;;;2.60;;
68097;SDS011;54886;47.036;15.466;2023-09-19T02:36:33;5.85;;;2.75;;
68097;SDS011;54886;47.036;15.466;2023-09-19T02:38:59;4.38;;;2.50;;
68097;SDS011;54886;47.036;15.466;2023-09-19T02:41:25;5.40;;;2.30;;
68097;SDS011;54886;47.036;15.466;2023-09-19T02:43:50;5.45;;;2.63;;
68097;SDS011;54886;47.036;15.466;2023-09-19T02:46:15;9.88;;;2.80;;
68097;SDS011;54886;47.036;15.466;2023-09-19T02:48:41;5.18;;;2.45;;
68097;SDS011;54886;47.036;15.466;2023-09-19T02:51:07;6.60;;;2.58;;
68097;SDS011;54886;47.036;15.466;2023-09-19T02:53:32;4.20;;;2.30;;
68097;SDS011;54886;47.036;15.466;2023-09-19T02:55:58;7.68;;;2.83;;
68097;SDS011;54886;47.036;15.466;2023-09-19T02:58:24;5.68;;;2.72;;
68097;SDS011;54886;47.036;15.466;2023-09-19T03:00:50;3.83;;;2.53;;
68097;SDS011;54886;47.036;15.466;2023-09-19T03:03:16;4.67;;;2.30;;
68097;SDS011;54886;47.036;15.466;2023-09-19T03:05:42;4.70;;;2.65;;
68097;SDS011;54886;47.036;15.466;2023-09-19T03:08:13;5.10;;;2.28;;
68097;SDS011;54886;47.036;15.466;2023-09-19T03:13:05;6.00;;;2.50;;
68097;SDS011;54886;47.036;15.466;2023-09-19T03:15:33;4.75;;;2.40;;
68097;SDS011;54886;47.036;15.466;2023-09-19T03:17:59;9.73;;;2.63;;
68097;SDS011;54886;47.036;15.466;2023-09-19T03:20:24;3.83;;;2.25;;
68097;SDS011;54886;47.036;15.466;2023-09-19T03:25:17;4.88;;;2.00;;
68097;SDS011;54886;47.036;15.466;2023-09-19T03:27:44;5.03;;;1.80;;
68097;SDS011;54886;47.036;15.466;2023-09-19T03:30:09;5.10;;;2.03;;
68097;SDS011;54886;47.036;15.466;2023-09-19T03:32:47;4.55;;;1.58;;
68097;SDS011;54886;47.036;15.466;2023-09-19T03:35:15;4.95;;;1.70;;
68097;SDS011;54886;47.036;15.466;2023-09-19T03:37:41;2.65;;;1.55;;
68097;SDS011;54886;47.036;15.466;2023-09-19T03:40:08;3.88;;;1.58;;
68097;SDS011;54886;47.036;15.466;2023-09-19T03:45:03;3.72;;;1.52;;
68097;SDS011;54886;47.036;15.466;2023-09-19T03:47:28;3.13;;;1.52;;
68097;SDS011;54886;47.036;15.466;2023-09-19T03:49:54;1.50;;;1.30;;
68097;SDS011;54886;47.036;15.466;2023-09-19T03:52:19;3.80;;;1.63;;
68097;SDS011;54886;47.036;15.466;2023-09-19T03:54:44;2.35;;;1.40;;
68097;SDS011;54886;47.036;15.466;2023-09-19T03:57:10;4.53;;;1.75;;
68097;SDS011;54886;47.036;15.466;2023-09-19T04:02:03;2.00;;;1.33;;
68097;SDS011;54886;47.036;15.466;2023-09-19T04:04:29;2.23;;;1.40;;
68097;SDS011;54886;47.036;15.466;2023-09-19T04:06:55;1.67;;;1.50;;
68097;SDS011;54886;47.036;15.466;2023-09-19T04:09:20;1.30;;;1.20;;
68097;SDS011;54886;47.036;15.466;2023-09-19T04:11:45;4.50;;;1.50;;
68097;SDS011;54886;47.036;15.466;2023-09-19T04:14:11;1.77;;;1.45;;
68097;SDS011;54886;47.036;15.466;2023-09-19T04:16:36;3.63;;;2.17;;
68097;SDS011;54886;47.036;15.466;2023-09-19T04:19:01;3.15;;;1.80;;
68097;SDS011;54886;47.036;15.466;2023-09-19T04:21:28;4.40;;;2.10;;
68097;SDS011;54886;47.036;15.466;2023-09-19T04:23:54;4.93;;;2.05;;
68097;SDS011;54886;47.036;15.466;2023-09-19T04:26:19;4.97;;;1.98;;
68097;SDS011;54886;47.036;15.466;2023-09-19T04:28:45;3.45;;;1.90;;
68097;SDS011;54886;47.036;15.466;2023-09-19T04:31:11;3.95;;;2.08;;
68097;SDS011;54886;47.036;15.466;2023-09-19T04:33:36;4.05;;;1.80;;
68097;SDS011;54886;47.036;15.466;2023-09-19T04:36:02;4.57;;;2.05;;
68097;SDS011;54886;47.036;15.466;2023-09-19T04:38:30;5.85;;;1.90;;
68097;SDS011;54886;47.036;15.466;2023-09-19T04:40:59;6.18;;;2.10;;
68097;SDS011;54886;47.036;15.466;2023-09-19T04:43:25;4.53;;;1.90;;
68097;SDS011;54886;47.036;15.466;2023-09-19T04:45:50;4.15;;;2.00;;
68097;SDS011;54886;47.036;15.466;2023-09-19T04:48:19;5.18;;;2.00;;
68097;SDS011;54886;47.036;15.466;2023-09-19T04:50:44;4.68;;;2.00;;
68097;SDS011;54886;47.036;15.466;2023-09-19T04:53:10;5.43;;;2.00;;
68097;SDS011;54886;47.036;15.466;2023-09-19T04:55:35;6.13;;;2.42;;
68097;SDS011;54886;47.036;15.466;2023-09-19T04:58:01;4.63;;;2.30;;
68097;SDS011;54886;47.036;15.466;2023-09-19T05:00:27;5.47;;;2.45;;
68097;SDS011;54886;47.036;15.466;2023-09-19T05:02:56;3.30;;;1.90;;
68097;SDS011;54886;47.036;15.466;2023-09-19T05:05:22;6.22;;;2.38;;
68097;SDS011;54886;47.036;15.466;2023-09-19T05:07:48;11.57;;;2.20;;
68097;SDS011;54886;47.036;15.466;2023-09-19T05:10:14;7.53;;;2.20;;
68097;SDS011;54886;47.036;15.466;2023-09-19T05:12:41;4.75;;;2.00;;
68097;SDS011;54886;47.036;15.466;2023-09-19T05:15:07;6.95;;;2.53;;
68097;SDS011;54886;47.036;15.466;2023-09-19T05:17:33;7.70;;;2.20;;
68097;SDS011;54886;47.036;15.466;2023-09-19T05:19:59;6.93;;;2.13;;
68097;SDS011;54886;47.036;15.466;2023-09-19T05:23:06;10.73;;;2.38;;
68097;SDS011;54886;47.036;15.466;2023-09-19T05:25:37;4.72;;;2.50;;
68097;SDS011;54886;47.036;15.466;2023-09-19T05:28:07;4.32;;;2.10;;
68097;SDS011;54886;47.036;15.466;2023-09-19T05:30:36;5.82;;;2.30;;
68097;SDS011;54886;47.036;15.466;2023-09-19T05:33:03;4.97;;;2.20;;
68097;SDS011;54886;47.036;15.466;2023-09-19T05:35:29;6.82;;;2.85;;
68097;SDS011;54886;47.036;15.466;2023-09-19T05:37:56;4.53;;;2.17;;
68097;SDS011;54886;47.036;15.466;2023-09-19T05:40:23;5.82;;;2.13;;
68097;SDS011;54886;47.036;15.466;2023-09-19T05:42:49;4.45;;;2.10;;
68097;SDS011;54886;47.036;15.466;2023-09-19T05:45:16;4.78;;;2.10;;
68097;SDS011;54886;47.036;15.466;2023-09-19T05:47:47;8.02;;;2.30;;
68097;SDS011;54886;47.036;15.466;2023-09-19T05:50:13;4.70;;;2.10;;
68097;SDS011;54886;47.036;15.466;2023-09-19T05:52:39;3.90;;;2.13;;
68097;SDS011;54886;47.036;15.466;2023-09-19T05:55:06;4.93;;;2.08;;
68097;SDS011;54886;47.036;15.466;2023-09-19T05:57:35;7.28;;;2.10;;
68097;SDS011;54886;47.036;15.466;2023-09-19T06:00:01;6.45;;;2.28;;
68097;SDS011;54886;47.036;15.466;2023-09-19T06:02:27;4.75;;;2.30;;
68097;SDS011;54886;47.036;15.466;2023-09-19T06:04:54;5.43;;;2.40;;
68097;SDS011;54886;47.036;15.466;2023-09-19T06:07:21;4.45;;;2.20;;
68097;SDS011;54886;47.036;15.466;2023-09-19T06:09:53;5.18;;;2.40;;
68097;SDS011;54886;47.036;15.466;2023-09-19T06:12:21;5.28;;;2.30;;
68097;SDS011;54886;47.036;15.466;2023-09-19T06:14:46;5.60;;;2.10;;
68097;SDS011;54886;47.036;15.466;2023-09-19T06:17:13;5.40;;;2.03;;
68097;SDS011;54886;47.036;15.466;2023-09-19T06:19:39;5.82;;;2.00;;
68097;SDS011;54886;47.036;15.466;2023-09-19T06:22:04;7.55;;;2.00;;
68097;SDS011;54886;47.036;15.466;2023-09-19T06:24:30;6.25;;;2.13;;
68097;SDS011;54886;47.036;15.466;2023-09-19T06:26:55;2.70;;;1.98;;
68097;SDS011;54886;47.036;15.466;2023-09-19T06:29:21;5.10;;;2.10;;
68097;SDS011;54886;47.036;15.466;2023-09-19T06:31:48;4.82;;;1.90;;
68097;SDS011;54886;47.036;15.466;2023-09-19T06:34:13;4.78;;;2.10;;
68097;SDS011;54886;47.036;15.466;2023-09-19T06:36:43;4.82;;;2.20;;
68097;SDS011;54886;47.036;15.466;2023-09-19T06:39:09;4.10;;;2.00;;
68097;SDS011;54886;47.036;15.466;2023-09-19T06:41:36;3.40;;;2.10;;
68097;SDS011;54886;47.036;15.466;2023-09-19T06:44:04;5.78;;;2.20;;
68097;SDS011;54886;47.036;15.466;2023-09-19T06:46:30;3.83;;;1.90;;
68097;SDS011;54886;47.036;15.466;2023-09-19T06:51:24;4.10;;;2.20;;
68097;SDS011;54886;47.036;15.466;2023-09-19T06:53:50;4.47;;;2.17;;
68097;SDS011;54886;47.036;15.466;2023-09-19T06:56:19;5.47;;;2.30;;
68097;SDS011;54886;47.036;15.466;2023-09-19T06:58:49;3.80;;;2.10;;
68097;SDS011;54886;47.036;15.466;2023-09-19T07:01:15;5.72;;;2.20;;
68097;SDS011;54886;47.036;15.466;2023-09-19T07:03:40;5.13;;;2.35;;
68097;SDS011;54886;47.036;15.466;2023-09-19T07:06:06;6.40;;;2.58;;
68097;SDS011;54886;47.036;15.466;2023-09-19T07:08:32;7.07;;;3.03;;
68097;SDS011;54886;47.036;15.466;2023-09-19T07:10:57;6.70;;;2.67;;
68097;SDS011;54886;47.036;15.466;2023-09-19T07:13:22;7.22;;;2.88;;
68097;SDS011;54886;47.036;15.466;2023-09-19T07:15:49;7.28;;;3.00;;
68097;SDS011;54886;47.036;15.466;2023-09-19T07:18:15;8.55;;;3.30;;
68097;SDS011;54886;47.036;15.466;2023-09-19T07:20:41;6.43;;;2.30;;
68097;SDS011;54886;47.036;15.466;2023-09-19T07:23:14;6.40;;;2.47;;
68097;SDS011;54886;47.036;15.466;2023-09-19T07:25:46;6.45;;;2.60;;
68097;SDS011;54886;47.036;15.466;2023-09-19T07:28:13;5.87;;;2.50;;
68097;SDS011;54886;47.036;15.466;2023-09-19T07:30:38;6.68;;;2.63;;
68097;SDS011;54886;47.036;15.466;2023-09-19T07:33:04;6.60;;;2.33;;
68097;SDS011;54886;47.036;15.466;2023-09-19T07:35:30;5.20;;;2.20;;
68097;SDS011;54886;47.036;15.466;2023-09-19T07:37:56;5.03;;;2.45;;
68097;SDS011;54886;47.036;15.466;2023-09-19T07:40:23;4.60;;;2.40;;
68097;SDS011;54886;47.036;15.466;2023-09-19T07:42:49;7.20;;;2.40;;
68097;SDS011;54886;47.036;15.466;2023-09-19T07:45:15;5.22;;;2.40;;
68097;SDS011;54886;47.036;15.466;2023-09-19T07:47:45;5.47;;;2.30;;
68097;SDS011;54886;47.036;15.466;2023-09-19T07:50:11;3.65;;;2.10;;
68097;SDS011;54886;47.036;15.466;2023-09-19T07:52:37;5.57;;;2.42;;
68097;SDS011;54886;47.036;15.466;2023-09-19T07:55:04;4.05;;;2.17;;
68097;SDS011;54886;47.036;15.466;2023-09-19T07:57:33;5.32;;;2.30;;
68097;SDS011;54886;47.036;15.466;2023-09-19T08:00:00;5.03;;;2.67;;
68097;SDS011;54886;47.036;15.466;2023-09-19T08:02:25;5.95;;;2.30;;
68097;SDS011;54886;47.036;15.466;2023-09-19T08:04:51;7.25;;;2.60;;
68097;SDS011;54886;47.036;15.466;2023-09-19T08:07:17;6.47;;;2.78;;
68097;SDS011;54886;47.036;15.466;2023-09-19T08:09:43;5.45;;;2.90;;
68097;SDS011;54886;47.036;15.466;2023-09-19T08:12:13;7.18;;;2.83;;
68097;SDS011;54886;47.036;15.466;2023-09-19T08:14:39;4.97;;;2.92;;
68097;SDS011;54886;47.036;15.466;2023-09-19T08:17:06;6.10;;;2.67;;
68097;SDS011;54886;47.036;15.466;2023-09-19T08:19:33;8.60;;;3.15;;
68097;SDS011;54886;47.036;15.466;2023-09-19T08:21:58;7.20;;;2.80;;
68097;SDS011;54886;47.036;15.466;2023-09-19T08:24:25;6.22;;;3.10;;
68097;SDS011;54886;47.036;15.466;2023-09-19T08:26:57;7.03;;;3.03;;
68097;SDS011;54886;47.036;15.466;2023-09-19T08:29:26;5.50;;;2.88;;
68097;SDS011;54886;47.036;15.466;2023-09-19T08:31:53;7.50;;;3.10;;
68097;SDS011;54886;47.036;15.466;2023-09-19T08:34:20;7.43;;;2.83;;
68097;SDS011;54886;47.036;15.466;2023-09-19T08:36:46;6.40;;;2.83;;
68097;SDS011;54886;47.036;15.466;2023-09-19T08:39:13;8.38;;;2.92;;
68097;SDS011;54886;47.036;15.466;2023-09-19T08:41:38;6.45;;;2.97;;
68097;SDS011;54886;47.036;15.466;2023-09-19T08:44:04;7.32;;;2.60;;
68097;SDS011;54886;47.036;15.466;2023-09-19T08:46:30;6.70;;;3.10;;
68097;SDS011;54886;47.036;15.466;2023-09-19T08:51:26;5.38;;;2.70;;
68097;SDS011;54886;47.036;15.466;2023-09-19T08:54:06;5.75;;;2.85;;
68097;SDS011;54886;47.036;15.466;2023-09-19T08:56:32;6.53;;;2.72;;
68097;SDS011;54886;47.036;15.466;2023-09-19T08:59:06;5.70;;;2.63;;
68097;SDS011;54886;47.036;15.466;2023-09-19T09:01:36;7.53;;;2.80;;
68097;SDS011;54886;47.036;15.466;2023-09-19T09:04:04;4.75;;;2.40;;
68097;SDS011;54886;47.036;15.466;2023-09-19T09:06:34;3.90;;;2.53;;
68097;SDS011;54886;47.036;15.466;2023-09-19T09:09:01;6.35;;;2.42;;
68097;SDS011;54886;47.036;15.466;2023-09-19T09:11:28;4.85;;;2.17;;
68097;SDS011;54886;47.036;15.466;2023-09-19T09:13:54;5.20;;;2.45;;
68097;SDS011;54886;47.036;15.466;2023-09-19T09:16:19;5.20;;;2.30;;
68097;SDS011;54886;47.036;15.466;2023-09-19T09:18:45;4.18;;;2.40;;
68097;SDS011;54886;47.036;15.466;2023-09-19T09:21:11;3.95;;;2.20;;
68097;SDS011;54886;47.036;15.466;2023-09-19T09:23:38;5.13;;;2.05;;
68097;SDS011;54886;47.036;15.466;2023-09-19T09:26:04;5.22;;;2.67;;
68097;SDS011;54886;47.036;15.466;2023-09-19T09:28:31;2.45;;;1.70;;
68097;SDS011;54886;47.036;15.466;2023-09-19T09:33:24;5.53;;;2.28;;
68097;SDS011;54886;47.036;15.466;2023-09-19T09:38:17;4.25;;;2.42;;
68097;SDS011;54886;47.036;15.466;2023-09-19T09:40:49;4.38;;;1.98;;
68097;SDS011;54886;47.036;15.466;2023-09-19T09:43:33;5.40;;;1.90;;
68097;SDS011;54886;47.036;15.466;2023-09-19T09:46:07;5.90;;;2.00;;
68097;SDS011;54886;47.036;15.466;2023-09-19T09:48:46;7.22;;;2.00;;
68097;SDS011;54886;47.036;15.466;2023-09-19T09:51:32;3.42;;;1.90;;
68097;SDS011;54886;47.036;15.466;2023-09-19T09:54:13;4.65;;;2.00;;
68097;SDS011;54886;47.036;15.466;2023-09-19T09:59:20;3.75;;;2.00;;
68097;SDS011;54886;47.036;15.466;2023-09-19T10:01:49;6.20;;;2.38;;
68097;SDS011;54886;47.036;15.466;2023-09-19T10:04:27;3.53;;;1.98;;
68097;SDS011;54886;47.036;15.466;2023-09-19T10:07:01;4.53;;;2.00;;
68097;SDS011;54886;47.036;15.466;2023-09-19T10:09:30;4.40;;;1.90;;
68097;SDS011;54886;47.036;15.466;2023-09-19T10:12:09;4.53;;;1.98;;
68097;SDS011;54886;47.036;15.466;2023-09-19T10:14:38;5.57;;;2.00;;
68097;SDS011;54886;47.036;15.466;2023-09-19T10:17:08;5.53;;;1.90;;
68097;SDS011;54886;47.036;15.466;2023-09-19T10:22:43;8.55;;;2.17;;
68097;SDS011;54886;47.036;15.466;2023-09-19T10:25:21;5.93;;;2.13;;
68097;SDS011;54886;47.036;15.466;2023-09-19T10:27:53;3.92;;;1.98;;
68097;SDS011;54886;47.036;15.466;2023-09-19T10:32:47;2.88;;;1.45;;
68097;SDS011;54886;47.036;15.466;2023-09-19T10:35:25;3.45;;;2.00;;
68097;SDS011;54886;47.036;15.466;2023-09-19T10:37:51;1.60;;;1.42;;
68097;SDS011;54886;47.036;15.466;2023-09-19T10:40:19;1.98;;;1.42;;
68097;SDS011;54886;47.036;15.466;2023-09-19T10:42:46;4.07;;;1.60;;
68097;SDS011;54886;47.036;15.466;2023-09-19T10:45:15;3.30;;;1.60;;
68097;SDS011;54886;47.036;15.466;2023-09-19T10:47:45;3.05;;;1.70;;
68097;SDS011;54886;47.036;15.466;2023-09-19T10:50:19;5.35;;;1.67;;
68097;SDS011;54886;47.036;15.466;2023-09-19T10:52:46;3.60;;;1.70;;
68097;SDS011;54886;47.036;15.466;2023-09-19T10:55:17;4.35;;;1.73;;
68097;SDS011;54886;47.036;15.466;2023-09-19T10:57:45;3.08;;;1.80;;
68097;SDS011;54886;47.036;15.466;2023-09-19T11:00:11;4.60;;;1.75;;
68097;SDS011;54886;47.036;15.466;2023-09-19T11:05:36;7.53;;;1.75;;
68097;SDS011;54886;47.036;15.466;2023-09-19T11:08:08;4.45;;;1.65;;
68097;SDS011;54886;47.036;15.466;2023-09-19T11:10:47;3.35;;;1.60;;
68097;SDS011;54886;47.036;15.466;2023-09-19T11:13:26;3.50;;;1.70;;
68097;SDS011;54886;47.036;15.466;2023-09-19T11:19:06;3.05;;;1.50;;
68097;SDS011;54886;47.036;15.466;2023-09-19T11:26:47;2.55;;;1.45;;
68097;SDS011;54886;47.036;15.466;2023-09-19T11:29:28;4.15;;;1.60;;
68097;SDS011;54886;47.036;15.466;2023-09-19T11:31:56;2.63;;;1.58;;
68097;SDS011;54886;47.036;15.466;2023-09-19T11:40:09;2.08;;;1.40;;
68097;SDS011;54886;47.036;15.466;2023-09-19T11:42:41;4.40;;;1.60;;
68097;SDS011;54886;47.036;15.466;2023-09-19T11:48:23;3.90;;;1.67;;
68097;SDS011;54886;47.036;15.466;2023-09-19T11:50:50;2.05;;;1.48;;
68097;SDS011;54886;47.036;15.466;2023-09-19T11:53:17;1.77;;;1.60;;
68097;SDS011;54886;47.036;15.466;2023-09-19T11:55:45;4.85;;;1.35;;
68097;SDS011;54886;47.036;15.466;2023-09-19T11:58:10;3.72;;;1.63;;
68097;SDS011;54886;47.036;15.466;2023-09-19T12:00:39;3.28;;;1.63;;
68097;SDS011;54886;47.036;15.466;2023-09-19T12:03:10;1.55;;;1.30;;
68097;SDS011;54886;47.036;15.466;2023-09-19T12:05:38;2.75;;;1.60;;
68097;SDS011;54886;47.036;15.466;2023-09-19T12:08:04;3.25;;;1.50;;
68097;SDS011;54886;47.036;15.466;2023-09-19T12:10:33;3.45;;;1.58;;
68097;SDS011;54886;47.036;15.466;2023-09-19T12:13:09;4.60;;;1.80;;
68097;SDS011;54886;47.036;15.466;2023-09-19T12:15:37;3.78;;;1.60;;
68097;SDS011;54886;47.036;15.466;2023-09-19T12:18:05;3.00;;;1.40;;
68097;SDS011;54886;47.036;15.466;2023-09-19T12:20:43;3.40;;;1.80;;
68097;SDS011;54886;47.036;15.466;2023-09-19T12:23:15;2.63;;;1.73;;
68097;SDS011;54886;47.036;15.466;2023-09-19T12:25:41;1.77;;;1.33;;
68097;SDS011;54886;47.036;15.466;2023-09-19T12:28:12;2.97;;;1.70;;
68097;SDS011;54886;47.036;15.466;2023-09-19T12:30:39;2.72;;;1.70;;
68097;SDS011;54886;47.036;15.466;2023-09-19T12:33:14;2.92;;;1.85;;
68097;SDS011;54886;47.036;15.466;2023-09-19T12:35:41;3.58;;;1.77;;
68097;SDS011;54886;47.036;15.466;2023-09-19T12:40:35;4.57;;;1.60;;
68097;SDS011;54886;47.036;15.466;2023-09-19T12:43:03;3.15;;;1.30;;
68097;SDS011;54886;47.036;15.466;2023-09-19T12:45:30;3.30;;;1.50;;
68097;SDS011;54886;47.036;15.466;2023-09-19T12:51:02;2.33;;;1.48;;
68097;SDS011;54886;47.036;15.466;2023-09-19T12:53:34;4.13;;;1.60;;
68097;SDS011;54886;47.036;15.466;2023-09-19T12:56:05;2.53;;;1.50;;
68097;SDS011;54886;47.036;15.466;2023-09-19T12:58:33;2.92;;;1.48;;
68097;SDS011;54886;47.036;15.466;2023-09-19T13:01:00;2.60;;;1.50;;
68097;SDS011;54886;47.036;15.466;2023-09-19T13:03:27;2.83;;;1.48;;
68097;SDS011;54886;47.036;15.466;2023-09-19T13:06:01;3.58;;;1.52;;
68097;SDS011;54886;47.036;15.466;2023-09-19T13:11:14;1.63;;;1.45;;
68097;SDS011;54886;47.036;15.466;2023-09-19T13:13:44;4.22;;;1.50;;
68097;SDS011;54886;47.036;15.466;2023-09-19T13:16:15;3.28;;;1.50;;
68097;SDS011;54886;47.036;15.466;2023-09-19T13:18:45;4.75;;;1.67;;
68097;SDS011;54886;47.036;15.466;2023-09-19T13:23:47;2.65;;;1.60;;
68097;SDS011;54886;47.036;15.466;2023-09-19T13:26:14;4.90;;;1.70;;
68097;SDS011;54886;47.036;15.466;2023-09-19T13:28:40;2.92;;;1.52;;
68097;SDS011;54886;47.036;15.466;2023-09-19T13:31:05;3.33;;;1.60;;
68097;SDS011;54886;47.036;15.466;2023-09-19T13:33:31;4.72;;;1.80;;
68097;SDS011;54886;47.036;15.466;2023-09-19T13:35:57;2.83;;;1.52;;
68097;SDS011;54886;47.036;15.466;2023-09-19T13:38:23;3.90;;;1.77;;
68097;SDS011;54886;47.036;15.466;2023-09-19T13:40:48;2.88;;;1.60;;
68097;SDS011;54886;47.036;15.466;2023-09-19T13:43:14;4.72;;;1.80;;
68097;SDS011;54886;47.036;15.466;2023-09-19T13:45:40;2.05;;;1.42;;
68097;SDS011;54886;47.036;15.466;2023-09-19T13:48:09;4.57;;;1.70;;
68097;SDS011;54886;47.036;15.466;2023-09-19T13:50:36;3.67;;;1.75;;
68097;SDS011;54886;47.036;15.466;2023-09-19T13:53:07;4.35;;;1.52;;
68097;SDS011;54886;47.036;15.466;2023-09-19T13:55:35;4.03;;;1.70;;
68097;SDS011;54886;47.036;15.466;2023-09-19T13:58:02;3.20;;;1.70;;
68097;SDS011;54886;47.036;15.466;2023-09-19T14:00:31;2.35;;;1.60;;
68097;SDS011;54886;47.036;15.466;2023-09-19T14:02:59;2.40;;;1.50;;
68097;SDS011;54886;47.036;15.466;2023-09-19T14:05:26;5.88;;;1.60;;
68097;SDS011;54886;47.036;15.466;2023-09-19T14:07:53;3.72;;;1.60;;
68097;SDS011;54886;47.036;15.466;2023-09-19T14:12:45;3.92;;;1.67;;
68097;SDS011;54886;47.036;15.466;2023-09-19T14:15:11;4.65;;;1.80;;
68097;SDS011;54886;47.036;15.466;2023-09-19T14:17:37;3.20;;;1.50;;
68097;SDS011;54886;47.036;15.466;2023-09-19T14:20:03;2.67;;;1.67;;
68097;SDS011;54886;47.036;15.466;2023-09-19T14:22:31;3.17;;;1.60;;
68097;SDS011;54886;47.036;15.466;2023-09-19T14:24:56;3.92;;;1.70;;
68097;SDS011;54886;47.036;15.466;2023-09-19T14:27:24;3.80;;;1.60;;
68097;SDS011;54886;47.036;15.466;2023-09-19T14:29:50;3.88;;;1.60;;
68097;SDS011;54886;47.036;15.466;2023-09-19T14:32:16;3.67;;;1.92;;
68097;SDS011;54886;47.036;15.466;2023-09-19T14:34:41;3.28;;;1.85;;
68097;SDS011;54886;47.036;15.466;2023-09-19T14:37:09;2.33;;;1.60;;
68097;SDS011;54886;47.036;15.466;2023-09-19T14:39:36;4.57;;;1.98;;
68097;SDS011;54886;47.036;15.466;2023-09-19T14:42:03;2.80;;;1.80;;
68097;SDS011;54886;47.036;15.466;2023-09-19T14:44:29;3.25;;;1.60;;
68097;SDS011;54886;47.036;15.466;2023-09-19T14:46:55;2.33;;;1.73;;
68097;SDS011;54886;47.036;15.466;2023-09-19T14:49:20;3.13;;;1.50;;
68097;SDS011;54886;47.036;15.466;2023-09-19T14:51:45;5.22;;;1.80;;
68097;SDS011;54886;47.036;15.466;2023-09-19T14:54:13;4.15;;;1.80;;
68097;SDS011;54886;47.036;15.466;2023-09-19T14:56:38;5.72;;;2.20;;
68097;SDS011;54886;47.036;15.466;2023-09-19T14:59:05;4.05;;;1.70;;
68097;SDS011;54886;47.036;15.466;2023-09-19T15:01:31;3.03;;;1.67;;
68097;SDS011;54886;47.036;15.466;2023-09-19T15:03:57;3.03;;;1.70;;
68097;SDS011;54886;47.036;15.466;2023-09-19T15:06:22;3.78;;;1.83;;
68097;SDS011;54886;47.036;15.466;2023-09-19T15:08:48;4.28;;;1.77;;
68097;SDS011;54886;47.036;15.466;2023-09-19T15:11:15;5.13;;;1.60;;
68097;SDS011;54886;47.036;15.466;2023-09-19T15:13:45;3.28;;;1.55;;
68097;SDS011;54886;47.036;15.466;2023-09-19T15:16:11;5.18;;;1.60;;
68097;SDS011;54886;47.036;15.466;2023-09-19T15:18:38;4.83;;;1.70;;
68097;SDS011;54886;47.036;15.466;2023-09-19T15:21:04;3.20;;;1.70;;
68097;SDS011;54886;47.036;15.466;2023-09-19T15:23:33;3.35;;;1.95;;
68097;SDS011;54886;47.036;15.466;2023-09-19T15:26:02;2.67;;;1.63;;
68097;SDS011;54886;47.036;15.466;2023-09-19T15:28:28;5.13;;;1.80;;
68097;SDS011;54886;47.036;15.466;2023-09-19T15:31:01;2.92;;;1.70;;
68097;SDS011;54886;47.036;15.466;2023-09-19T15:33:28;3.05;;;1.55;;
68097;SDS011;54886;47.036;15.466;2023-09-19T15:41:18;3.65;;;1.90;;
68097;SDS011;54886;47.036;15.466;2023-09-19T15:43:43;2.40;;;1.60;;
68097;SDS011;54886;47.036;15.466;2023-09-19T15:46:09;4.97;;;1.70;;
68097;SDS011;54886;47.036;15.466;2023-09-19T15:48:34;3.85;;;1.88;;
68097;SDS011;54886;47.036;15.466;2023-09-19T15:51:03;3.25;;;1.50;;
68097;SDS011;54886;47.036;15.466;2023-09-19T15:53:31;4.03;;;1.98;;
68097;SDS011;54886;47.036;15.466;2023-09-19T15:56:08;5.25;;;1.65;;
68097;SDS011;54886;47.036;15.466;2023-09-19T15:58:35;4.85;;;1.70;;
68097;SDS011;54886;47.036;15.466;2023-09-19T16:01:07;4.80;;;1.67;;
68097;SDS011;54886;47.036;15.466;2023-09-19T16:03:38;4.65;;;1.95;;